Time;durP1;ratioP1;P1;durP2;ratioP2;P2;SDS_P1;SDS_P2;PMS_P1;PMS_P2;Temp;Humidity;BMP_temperature;BMP_pressure;BME280_temperature;BME280_humidity;BME280_pressure;Samples;Min_cycle;Max_cycle;Signal;HPM_P1;HPM_P2
2022/08/17 00:00:39;;;;;;;;;;;;;;;;;;21078106;28;19924;-78
2022/08/17 00:10:41;;;;;;;;;;;;;;;;;;21098043;28;19970;-56
2022/08/17 00:20:42;;;;;;;;;;;;;;;;;;21096854;28;20086;-78
2022/08/17 00:30:44;;;;;;;;;;;;;;;;;;21078040;28;19924;-77
2022/08/17 00:40:46;;;;;;;;;;;;;;;;;;21091513;28;20022;-57
2022/08/17 00:50:48;;;;;;;;;;;;;;;;;;21095296;28;20288;-77
2022/08/17 01:00:50;;;;;;;;;;;;;;;;;;21093209;28;19924;-76
2022/08/17 01:10:52;;;;;;;;;;;;;;;;;;21105080;28;20390;-78
2022/08/17 01:20:54;;;;;;;;;;;;;;;;;;21091740;28;19932;-75
2022/08/17 01:30:57;;;;;;;;;;;;;;;;;;21091065;28;19931;-54
2022/08/17 01:41:00;;;;;;;;;;;;;;;;;;21089915;28;20341;-72
2022/08/17 01:51:03;;;;;;;;;;;;;;;;;;21088548;28;19978;-54
2022/08/17 02:01:05;;;;;;;;;;;;;;;;;;21089137;28;20284;-75
2022/08/17 02:11:08;;;;;;;;;;;;;;;;;;21086357;28;20363;-54
2022/08/17 02:21:10;;;;;;;;;;;;;;;;;;21086992;28;19986;-54
2022/08/17 02:31:13;;;;;;;;;;;;;;;;;;21085111;28;19945;-54
2022/08/17 02:41:15;;;;;;;;;;;;;;;;;;21084451;28;20053;-67
2022/08/17 02:51:18;;;;;;;;;;;;;;;;;;21083535;28;20018;-67
2022/08/17 03:01:22;;;;;;;;;;;;;;;;;;21081369;28;19931;-55
2022/08/17 03:11:24;;;;;;;;;;;;;;;;;;21082336;28;19947;-73
2022/08/17 03:21:27;;;;;;;;;;;;;;;;;;21081733;28;20268;-60
2022/08/17 03:31:30;;;;;;;;;;;;;;;;;;21080823;28;19924;-75
2022/08/17 03:41:32;;;;;;;;;;;;;;;;;;21080206;28;19928;-57
2022/08/17 04:01:55;;;;;;;;;;;;;;;;;;21078557;28;19940;-55
2022/08/17 04:11:57;;;;;;;;;;;;;;;;;;21078754;28;19928;-58
2022/08/17 04:21:58;;;;;;;;;;;;;;;;;;21095104;28;19924;-54
2022/08/17 04:32:00;;;;;;;;;;;;;;;;;;21098427;28;19972;-54
2022/08/17 04:42:05;;;;;;;;;;;;;;;;;;21099440;28;19924;-59
2022/08/17 04:52:10;;;;;;;;;;;;;;;;;;21097006;28;20023;-54
2022/08/17 05:02:11;;;;;;;;;;;;;;;;;;21094345;28;19938;-56
2022/08/17 05:12:13;;;;;;;;;;;;;;;;;;21091759;28;20383;-56
2022/08/17 05:22:15;;;;;;;;;;;;;;;;;;21089751;28;19928;-56
2022/08/17 05:32:21;;;;;;;;;;;;;;;;;;21088775;28;20032;-54
2022/08/17 05:42:23;;;;;;;;;;;;;;;;;;21088743;28;20303;-59
2022/08/17 05:52:24;;;;;;;;;;;;;;;;;;21087867;28;19972;-52
2022/08/17 06:02:26;;;;;;;;;;;;;;;;;;21087399;28;19924;-54
2022/08/17 06:12:28;;;;;;;;;;;;;;;;;;21085499;28;19927;-54
2022/08/17 06:22:31;;;;;;;;;;;;;;;;;;21085779;28;19946;-54
2022/08/17 06:32:34;;;;;;;;;;;;;;;;;;21083615;28;19935;-54
2022/08/17 06:42:39;;;;;;;;;;;;;;;;;;21083621;28;20368;-54
2022/08/17 06:52:42;;;;;;;;;;;;;;;;;;21082821;28;20227;-54
2022/08/17 07:02:44;;;;;;;;;;;;;;;;;;21081573;28;19928;-68
2022/08/17 07:12:45;;;;;;;;;;;;;;;;;;21081864;28;20436;-54
2022/08/17 07:22:48;;;;;;;;;;;;;;;;;;21081023;28;19924;-54
2022/08/17 07:32:49;;;;;;;;;;;;;;;;;;21079562;28;20362;-56
2022/08/17 07:42:52;;;;;;;;;;;;;;;;;;21079473;28;20237;-57
2022/08/17 07:52:53;;;;;;;;;;;;;;;;;;21079743;28;19968;-73
2022/08/17 08:02:55;;;;;;;;;;;;;;;;;;21078670;28;19928;-64
2022/08/17 08:12:57;;;;;;;;;;;;;;;;;;21078639;28;20054;-54
2022/08/17 08:23:00;;;;;;;;;;;;;;;;;;21078490;28;19974;-72
2022/08/17 08:33:03;;;;;;;;;;;;;;;;;;21077791;28;20304;-55
2022/08/17 08:43:04;;;;;;;;;;;;;;;;;;21077362;28;19928;-67
2022/08/17 08:53:06;;;;;;;;;;;;;;;;;;21075619;28;19931;-67
2022/08/17 09:03:08;;;;;;;;;;;;;;;;;;21085170;28;19924;-68
2022/08/17 09:13:10;;;;;;;;;;;;;;;;;;21091952;28;19924;-54
2022/08/17 09:23:12;;;;;;;;;;;;;;;;;;21092249;28;19931;-57
2022/08/17 09:33:14;;;;;;;;;;;;;;;;;;21090173;28;20011;-58
2022/08/17 09:43:16;;;;;;;;;;;;;;;;;;21089260;28;19971;-56
2022/08/17 09:53:20;;;;;;;;;;;;;;;;;;21088379;28;19964;-56
2022/08/17 10:03:22;;;;;;;;;;;;;;;;;;21087615;28;19925;-56
2022/08/17 10:13:24;;;;;;;;;;;;;;;;;;21086370;28;19969;-56
2022/08/17 10:33:46;;;;;;;;;;;;;;;;;;21085171;28;19965;-67
2022/08/17 10:43:48;;;;;;;;;;;;;;;;;;21083812;28;19924;-62
2022/08/17 10:53:49;;;;;;;;;;;;;;;;;;21084534;28;19924;-67
2022/08/17 11:03:52;;;;;;;;;;;;;;;;;;21081724;28;19928;-54
2022/08/17 11:13:53;;;;;;;;;;;;;;;;;;21081818;28;19924;-53
2022/08/17 11:23:56;;;;;;;;;;;;;;;;;;21080149;28;19970;-53
2022/08/17 11:33:58;;;;;;;;;;;;;;;;;;21079702;28;19967;-57
2022/08/17 11:43:59;;;;;;;;;;;;;;;;;;21079516;28;20077;-54
2022/08/17 11:54:04;;;;;;;;;;;;;;;;;;21077787;28;20347;-54
2022/08/17 12:04:06;;;;;;;;;;;;;;;;;;21078359;28;19927;-56
2022/08/17 12:14:08;;;;;;;;;;;;;;;;;;21078719;28;20007;-76
2022/08/17 12:24:10;;;;;;;;;;;;;;;;;;21079321;28;20299;-76
2022/08/17 12:34:12;;;;;;;;;;;;;;;;;;21086132;28;19982;-77
2022/08/17 12:44:14;;;;;;;;;;;;;;;;;;21108568;28;20077;-56
2022/08/17 12:54:16;;;;;;;;;;;;;;;;;;21105809;28;20364;-63
2022/08/17 13:04:18;;;;;;;;;;;;;;;;;;21102320;28;19969;-77
2022/08/17 13:14:19;;;;;;;;;;;;;;;;;;21092257;28;20398;-55
2022/08/17 13:24:22;;;;;;;;;;;;;;;;;;21090427;28;19931;-61
2022/08/17 13:34:25;;;;;;;;;;;;;;;;;;21094066;28;19971;-76
2022/08/17 13:44:26;;;;;;;;;;;;;;;;;;21091181;28;19930;-59
2022/08/17 13:54:28;;;;;;;;;;;;;;;;;;21088948;28;20023;-70
2022/08/17 14:04:30;;;;;;;;;;;;;;;;;;21088281;28;19924;-76
2022/08/17 14:14:32;;;;;;;;;;;;;;;;;;21088359;28;19931;-58
2022/08/17 14:24:34;;;;;;;;;;;;;;;;;;21085989;28;19924;-76
2022/08/17 14:34:36;;;;;;;;;;;;;;;;;;21085729;28;19924;-55
2022/08/17 14:44:37;;;;;;;;;;;;;;;;;;21087309;28;20363;-76
2022/08/17 14:54:39;;;;;;;;;;;;;;;;;;21087678;28;19924;-58
2022/08/17 15:04:41;;;;;;;;;;;;;;;;;;21084024;28;19931;-75
2022/08/17 15:14:43;;;;;;;;;;;;;;;;;;21082854;28;19978;-56
2022/08/17 15:24:44;;;;;;;;;;;;;;;;;;21082015;28;19928;-67
2022/08/17 15:34:46;;;;;;;;;;;;;;;;;;21081206;28;19924;-77
2022/08/17 15:44:48;;;;;;;;;;;;;;;;;;21084973;28;19924;-57
2022/08/17 15:54:50;;;;;;;;;;;;;;;;;;21087518;28;19947;-60
2022/08/17 16:04:51;;;;;;;;;;;;;;;;;;21110759;28;19924;-55
2022/08/17 16:14:55;;;;;;;;;;;;;;;;;;21112026;28;19957;-71
2022/08/17 16:24:57;;;;;;;;;;;;;;;;;;21107691;28;19978;-78
2022/08/17 16:35:00;;;;;;;;;;;;;;;;;;21107861;28;19924;-55
2022/08/17 16:45:01;;;;;;;;;;;;;;;;;;21105379;28;20286;-71
2022/08/17 16:55:03;;;;;;;;;;;;;;;;;;21105162;28;20343;-56
2022/08/17 17:05:05;;;;;;;;;;;;;;;;;;21105374;28;19986;-78
2022/08/17 17:15:06;;;;;;;;;;;;;;;;;;21106279;28;19968;-57
2022/08/17 17:25:09;;;;;;;;;;;;;;;;;;21107940;28;19963;-76
2022/08/17 17:35:11;;;;;;;;;;;;;;;;;;21105502;28;20082;-64
2022/08/17 17:45:14;;;;;;;;;;;;;;;;;;21094924;28;19924;-59
2022/08/17 17:55:17;;;;;;;;;;;;;;;;;;21099228;28;19931;-77
2022/08/17 18:05:19;;;;;;;;;;;;;;;;;;21085275;28;19999;-56
2022/08/17 18:15:20;;;;;;;;;;;;;;;;;;21086879;28;19971;-55
2022/08/17 18:25:22;;;;;;;;;;;;;;;;;;21084842;28;19924;-71
2022/08/17 18:35:26;;;;;;;;;;;;;;;;;;21084116;28;19950;-63
2022/08/17 18:45:28;;;;;;;;;;;;;;;;;;21091230;28;19929;-55
2022/08/17 18:55:31;;;;;;;;;;;;;;;;;;21092365;28;20356;-55
2022/08/17 19:05:33;;;;;;;;;;;;;;;;;;21083871;28;20260;-57
2022/08/17 19:15:34;;;;;;;;;;;;;;;;;;21081721;28;19924;-57
2022/08/17 19:25:36;;;;;;;;;;;;;;;;;;21082498;28;19935;-62
2022/08/17 19:35:38;;;;;;;;;;;;;;;;;;21082614;28;19924;-56
2022/08/17 19:45:39;;;;;;;;;;;;;;;;;;21080584;28;20404;-57
2022/08/17 19:55:42;;;;;;;;;;;;;;;;;;21079965;28;19925;-59
2022/08/17 20:05:43;;;;;;;;;;;;;;;;;;21079569;28;20006;-77
2022/08/17 20:15:45;;;;;;;;;;;;;;;;;;21082610;28;19932;-78
2022/08/17 20:25:46;;;;;;;;;;;;;;;;;;21087673;28;19930;-75
2022/08/17 20:35:47;;;;;;;;;;;;;;;;;;21081670;28;19967;-57
2022/08/17 20:45:49;;;;;;;;;;;;;;;;;;21078727;28;20268;-58
2022/08/17 20:55:51;;;;;;;;;;;;;;;;;;21081539;28;19931;-54
2022/08/17 21:05:53;;;;;;;;;;;;;;;;;;21093103;28;19977;-63
2022/08/17 21:15:55;;;;;;;;;;;;;;;;;;21092646;28;19928;-59
2022/08/17 21:25:56;;;;;;;;;;;;;;;;;;21090972;28;19931;-72
2022/08/17 21:35:58;;;;;;;;;;;;;;;;;;21091221;28;19931;-64
2022/08/17 21:46:01;;;;;;;;;;;;;;;;;;21089975;28;20010;-67
2022/08/17 21:56:02;;;;;;;;;;;;;;;;;;21088814;28;19924;-55
2022/08/17 22:06:04;;;;;;;;;;;;;;;;;;21087926;28;19931;-66
2022/08/17 22:16:06;;;;;;;;;;;;;;;;;;21089935;28;20387;-62
2022/08/17 22:26:08;;;;;;;;;;;;;;;;;;21088761;28;19954;-58
2022/08/17 22:36:10;;;;;;;;;;;;;;;;;;21086480;28;19947;-72
2022/08/17 22:46:11;;;;;;;;;;;;;;;;;;21087195;28;20298;-57
2022/08/17 23:06:34;;;;;;;;;;;;;;;;;;21083157;28;19924;-76
2022/08/17 23:16:38;;;;;;;;;;;;;;;;;;21081731;28;19928;-71
2022/08/17 23:26:40;;;;;;;;;;;;;;;;;;21081594;28;19927;-62
2022/08/17 23:36:50;;;;;;;;;;;;;;;;;;21083104;28;20272;-67
2022/08/17 23:46:52;;;;;;;;;;;;;;;;;;21080098;28;19924;-63
2022/08/17 23:56:54;;;;;;;;;;;;;;;;;;21080823;28;19932;-56
